Het weer levert geen direct gevaar op.    Er zijn geen waarschuwingen afgegeven.








webcam  webcam


webcam 2   webcam 2


Onweer radar Meer informatie blitzortung!


Regen radar Meer informatie rain snow radar


Bezoek onze andere website:

Template documentation
and downloads

And another site

weerstation wsnoordbergum

weerstationlembeke



METAR rapporten vliegvelden

   
EHAM - Amsterdam
Gewijzigd: 22-11-2019 04:25
Licht bewolkt  
Licht bewolkt  
   Wind: ZO 14.8 km/h
Wind: ZO 14.8 km/h
Temperatuur: 4°C
Voelt als: 1°C
Dauwpunt: 3°C
Vochtigheid: 93%
Barometer: 1003 hPa
Bewolking: Licht bewolkt
Zicht: meer dan 10 km
Bewolking: Licht bewolkt 4100 ft
EHAM 220325Z 13008KT 9999 FEW041 04/03 Q1003 NOSIG
EHRD - Rotterdam
Gewijzigd: 22-11-2019 04:25
Grotendeels bewolkt  
Grotendeels bewolkt  
   Wind: ZO 14.8 km/h
Wind: ZO 14.8 km/h
Temperatuur: 5°C
Voelt als: 2°C
Dauwpunt: 4°C
Vochtigheid: 93%
Barometer: 1003 hPa
Bewolking: Grotendeels bewolkt
Zicht: meer dan 10 km
Bewolking: Grotendeels bewolkt 4700 ft
EHRD 220325Z AUTO 14008KT 100V180 9999 BKN047 05/04 Q1003 NOSIG
EHLW - Leeuwarden
Gewijzigd: 22-11-2019 04:25
Nevel, Bewolking  
Nevel, Bewolking  
   Wind: ZO 13 km/h
Wind: ZO 13 km/h
Temperatuur: 3°C
Voelt als: -1°C
Dauwpunt: 2°C
Vochtigheid: 93%
Barometer: 1004 hPa
Bewolking: Bewolking
Zicht: 5 km
Bewolking: Bewolking 19000 ft
EHLW 220325Z AUTO 14007KT 5000 BR OVC190 03/02 Q1004 WHT
EHGG - Groningen
Gewijzigd: 22-11-2019 04:25
Mist, Bewolking  
Mist, Bewolking  
   Wind: Oosten 5.6 km/h
Wind: Oosten 5.6 km/h
Temperatuur: 2°C
Voelt als: 1°C
Dauwpunt: 2°C
Vochtigheid: 100%
Barometer: 1005 hPa
Bewolking: Bewolking
Zicht: 1 km
Bewolking: Bewolking
EHGG 220325Z AUTO 10003KT 070V150 0600 R23/0800N FG VV000 02/02 Q1005
  

Script ontwikkeld door  Saratoga-weather.org Aangepast voor de template door  Weerstation Leuven

U vindt ons ook hier:

Het Weer Aktueel

European Weather Network

WeatherCloud

Weather Underground

AWEKAS

HAMweather, WeatherForYou, PWS Weather

Apparatuur in gebruik:

Weerstation
Davis VP2

Weerprogramma
Meteobridge

Weercomputer
Asus WL -330N3G

Webleverancier
Hostnet

Davis VP2

Meteobridge

Asus WL -330N3G

Hostnet